Time;durP1;ratioP1;P1;durP2;ratioP2;P2;SDS_P1;SDS_P2;PMS_P1;PMS_P2;Temp;Humidity;BMP_temperature;BMP_pressure;BME280_temperature;BME280_humidity;BME280_pressure;Samples;Min_cycle;Max_cycle;Signal;HPM_P1;HPM_P2
2024/02/26 00:00:32;;;;;;;3.13;1.13;;;6.30;99.90;;;;;;4990874;28;20034;-54
2024/02/26 00:02:57;;;;;;;2.37;1.07;;;6.30;99.90;;;;;;4992200;28;20034;-53
2024/02/26 00:05:23;;;;;;;2.70;0.97;;;6.30;99.90;;;;;;4992113;28;20030;-53
2024/02/26 00:07:49;;;;;;;2.00;0.87;;;6.30;99.90;;;;;;4992209;28;20077;-53
2024/02/26 00:10:14;;;;;;;2.87;1.13;;;6.40;99.90;;;;;;4991970;28;20034;-53
2024/02/26 00:12:40;;;;;;;1.47;0.80;;;6.30;99.90;;;;;;4992204;28;20061;-49
2024/02/26 00:15:07;;;;;;;2.37;1.10;;;6.20;99.90;;;;;;4993187;28;20038;-49
2024/02/26 00:17:33;;;;;;;2.27;1.03;;;6.20;99.90;;;;;;4996451;28;20046;-50
2024/02/26 00:20:00;;;;;;;3.87;1.10;;;6.10;99.90;;;;;;4996008;28;20026;-54
2024/02/26 00:22:26;;;;;;;2.40;0.80;;;6.10;99.90;;;;;;4995879;28;20414;-54
2024/02/26 00:24:51;;;;;;;2.07;0.90;;;6.10;99.90;;;;;;4995785;28;20035;-53
2024/02/26 00:27:17;;;;;;;1.37;0.90;;;6.00;99.90;;;;;;4995833;28;20061;-53
2024/02/26 00:29:43;;;;;;;1.80;0.93;;;6.00;99.90;;;;;;4995586;28;20483;-54
2024/02/26 00:32:09;;;;;;;1.87;0.93;;;6.00;99.90;;;;;;4995829;28;20125;-51
2024/02/26 00:34:35;;;;;;;2.20;1.13;;;6.00;99.90;;;;;;4995620;28;20019;-53
2024/02/26 00:37:02;;;;;;;1.50;1.00;;;6.00;99.90;;;;;;4995609;28;20030;-53
2024/02/26 00:39:27;;;;;;;1.70;0.90;;;6.00;99.90;;;;;;4995573;28;20027;-52
2024/02/26 00:41:53;;;;;;;1.53;0.73;;;6.00;99.90;;;;;;4995366;28;20034;-52
2024/02/26 00:44:18;;;;;;;1.67;0.77;;;6.00;99.90;;;;;;4995233;28;20034;-51
2024/02/26 00:46:44;;;;;;;2.83;0.97;;;6.00;99.90;;;;;;4995529;28;20113;-53
2024/02/26 00:49:09;;;;;;;2.17;1.03;;;6.00;99.90;;;;;;4995331;28;20045;-53
2024/02/26 00:51:35;;;;;;;1.77;0.80;;;6.00;99.90;;;;;;4995177;28;20027;-50
2024/02/26 00:54:01;;;;;;;2.47;1.10;;;6.00;99.90;;;;;;4995150;28;20443;-50
2024/02/26 00:56:27;;;;;;;2.17;0.80;;;6.20;99.90;;;;;;4995416;28;20027;-49
2024/02/26 00:58:52;;;;;;;1.83;1.30;;;6.40;99.90;;;;;;4995133;28;20475;-53
2024/02/26 01:01:18;;;;;;;2.77;1.10;;;6.40;99.90;;;;;;4993761;28;20039;-51
2024/02/26 01:03:44;;;;;;;2.83;1.00;;;6.40;99.90;;;;;;4995039;28;20188;-52
2024/02/26 01:06:09;;;;;;;2.57;0.73;;;6.40;99.90;;;;;;4995055;28;20034;-49
2024/02/26 01:08:35;;;;;;;2.07;0.73;;;6.30;99.90;;;;;;4995228;28;20507;-53
2024/02/26 01:11:01;;;;;;;2.20;0.90;;;6.30;99.90;;;;;;4994805;28;20161;-52
2024/02/26 01:13:27;;;;;;;1.03;0.70;;;6.30;99.90;;;;;;4994727;28;20065;-51
2024/02/26 01:15:52;;;;;;;1.10;0.73;;;6.30;99.90;;;;;;4994938;28;20037;-53
2024/02/26 01:18:18;;;;;;;1.60;0.87;;;6.30;99.90;;;;;;4994917;28;20029;-52
2024/02/26 01:20:43;;;;;;;2.00;0.90;;;6.40;99.90;;;;;;4994596;28;20110;-52
2024/02/26 01:23:09;;;;;;;1.80;0.90;;;6.40;99.90;;;;;;4994758;28;20062;-53
2024/02/26 01:25:35;;;;;;;3.77;0.90;;;6.40;99.90;;;;;;4994696;28;20483;-50
2024/02/26 01:28:00;;;;;;;1.80;0.77;;;6.50;99.90;;;;;;4993365;28;20037;-49
2024/02/26 01:30:26;;;;;;;1.50;0.80;;;6.60;99.90;;;;;;4994332;28;20030;-53
2024/02/26 01:32:51;;;;;;;2.70;0.93;;;6.50;99.90;;;;;;4994688;28;20109;-53
2024/02/26 01:35:17;;;;;;;2.60;0.80;;;6.50;99.90;;;;;;4994515;28;20559;-53
2024/02/26 01:37:42;;;;;;;1.47;0.83;;;6.50;99.90;;;;;;4994534;28;20113;-53
2024/02/26 01:40:09;;;;;;;1.50;0.80;;;6.40;99.90;;;;;;4994287;28;20105;-52
2024/02/26 01:42:37;;;;;;;1.30;0.70;;;6.40;99.90;;;;;;4994819;28;20038;-53
2024/02/26 01:45:05;;;;;;;0.83;0.47;;;6.30;99.90;;;;;;4994192;28;20057;-53
2024/02/26 01:47:30;;;;;;;1.63;0.90;;;6.30;99.90;;;;;;4994322;28;20063;-53
2024/02/26 01:49:57;;;;;;;1.43;0.70;;;6.30;99.90;;;;;;4992878;28;20395;-50
2024/02/26 01:52:23;;;;;;;2.97;0.80;;;6.30;99.90;;;;;;4994118;28;20054;-53
2024/02/26 01:54:49;;;;;;;2.50;1.20;;;6.20;99.90;;;;;;4992808;28;20505;-51
2024/02/26 01:57:16;;;;;;;1.23;0.80;;;6.20;99.90;;;;;;4994041;28;20113;-53
2024/02/26 01:59:42;;;;;;;1.47;0.80;;;6.20;99.90;;;;;;4993936;28;20386;-53
2024/02/26 02:02:11;;;;;;;1.63;0.83;;;6.20;99.90;;;;;;4993863;28;20117;-53
2024/02/26 02:04:37;;;;;;;1.50;0.90;;;6.20;99.90;;;;;;4993901;28;20042;-53
2024/02/26 02:07:03;;;;;;;2.40;0.87;;;6.20;99.90;;;;;;4994076;28;20066;-49
2024/02/26 02:09:29;;;;;;;1.60;0.90;;;6.20;99.90;;;;;;4993939;28;20060;-49
2024/02/26 02:11:55;;;;;;;2.33;0.90;;;6.20;99.90;;;;;;4993688;28;20489;-54
2024/02/26 02:14:21;;;;;;;2.93;1.00;;;6.20;99.90;;;;;;4993806;28;20062;-53
2024/02/26 02:16:47;;;;;;;1.87;0.70;;;6.20;99.90;;;;;;4994043;28;20050;-53
2024/02/26 02:19:13;;;;;;;1.63;0.90;;;6.20;99.90;;;;;;4993809;28;20022;-53
2024/02/26 02:21:39;;;;;;;2.07;0.83;;;6.20;99.90;;;;;;4993508;28;20042;-53
2024/02/26 02:24:05;;;;;;;1.93;0.80;;;6.20;99.90;;;;;;4993602;28;20037;-53
2024/02/26 02:26:30;;;;;;;1.10;0.70;;;6.20;99.90;;;;;;4993574;28;20066;-50
2024/02/26 02:28:57;;;;;;;2.70;1.40;;;6.20;99.90;;;;;;4993550;28;20414;-52
2024/02/26 02:31:22;;;;;;;4.17;0.97;;;6.10;99.90;;;;;;4993198;28;20026;-53
2024/02/26 02:33:48;;;;;;;3.13;1.00;;;6.10;99.90;;;;;;4993364;28;20085;-52
2024/02/26 02:36:14;;;;;;;3.00;1.03;;;6.10;99.90;;;;;;4992217;28;20110;-49
2024/02/26 02:38:52;;;;;;;2.23;0.97;;;6.10;99.90;;;;;;4993171;28;20026;-53
2024/02/26 02:41:18;;;;;;;2.30;0.90;;;6.00;99.90;;;;;;4993193;28;20031;-53
2024/02/26 02:43:44;;;;;;;2.53;0.93;;;6.00;99.90;;;;;;4993208;28;20372;-53
2024/02/26 02:46:11;;;;;;;2.00;0.90;;;6.00;99.90;;;;;;4993139;28;20058;-53
2024/02/26 02:48:37;;;;;;;1.70;0.90;;;6.00;99.90;;;;;;4993257;28;20176;-53
2024/02/26 02:51:04;;;;;;;1.93;1.00;;;6.00;99.90;;;;;;4992993;28;20101;-53
2024/02/26 02:53:30;;;;;;;1.90;0.80;;;6.00;99.90;;;;;;4993045;28;20034;-51
2024/02/26 02:55:56;;;;;;;3.07;1.10;;;6.00;99.90;;;;;;4993166;28;20113;-53
2024/02/26 02:58:21;;;;;;;2.20;0.90;;;5.90;99.90;;;;;;4993055;28;20113;-53
2024/02/26 03:00:47;;;;;;;1.87;0.97;;;5.90;99.90;;;;;;4992731;28;20031;-53
2024/02/26 03:03:12;;;;;;;2.60;1.30;;;5.90;99.90;;;;;;4993302;28;20045;-50
2024/02/26 03:05:38;;;;;;;2.13;0.90;;;5.90;99.90;;;;;;4993167;28;20038;-48
2024/02/26 03:08:04;;;;;;;1.70;0.90;;;5.90;99.90;;;;;;4992921;28;20376;-53
2024/02/26 03:10:29;;;;;;;2.20;1.10;;;5.80;99.90;;;;;;4993412;28;20042;-53
2024/02/26 03:12:56;;;;;;;2.33;1.03;;;5.80;99.90;;;;;;4993241;28;20062;-53
2024/02/26 03:15:21;;;;;;;2.33;1.00;;;5.80;99.90;;;;;;4992762;28;20056;-53
2024/02/26 03:17:47;;;;;;;3.43;1.40;;;5.70;99.90;;;;;;4992814;28;20448;-53
2024/02/26 03:20:13;;;;;;;4.43;1.30;;;5.60;99.90;;;;;;4992549;28;20033;-49
2024/02/26 03:22:39;;;;;;;2.33;1.30;;;5.60;99.90;;;;;;4992705;28;20483;-54
2024/02/26 03:25:06;;;;;;;9.83;1.50;;;5.50;99.90;;;;;;4992887;28;20042;-54
2024/02/26 03:27:31;;;;;;;3.87;1.10;;;5.40;99.90;;;;;;4992669;28;20074;-54
2024/02/26 03:29:58;;;;;;;3.20;1.47;;;5.30;99.90;;;;;;4991649;28;20072;-51
2024/02/26 03:32:23;;;;;;;3.13;1.37;;;5.20;99.90;;;;;;4992735;28;20085;-54
2024/02/26 03:34:49;;;;;;;3.57;1.40;;;5.10;99.90;;;;;;4992375;28;20030;-54
2024/02/26 03:37:15;;;;;;;2.50;1.40;;;5.10;99.90;;;;;;4992842;28;20030;-54
2024/02/26 03:39:40;;;;;;;5.10;1.50;;;5.00;99.90;;;;;;4992411;28;20053;-54
2024/02/26 03:42:06;;;;;;;9.37;2.00;;;4.90;99.90;;;;;;4992301;28;20034;-53
2024/02/26 03:44:32;;;;;;;3.23;1.37;;;4.90;99.90;;;;;;4992185;28;20030;-54
2024/02/26 03:46:57;;;;;;;2.87;1.20;;;4.90;99.90;;;;;;4992424;28;20491;-54
2024/02/26 03:49:23;;;;;;;2.20;1.20;;;4.80;99.90;;;;;;4990822;28;20042;-53
2024/02/26 03:51:49;;;;;;;2.30;1.40;;;4.80;99.90;;;;;;4991679;28;20030;-55
2024/02/26 03:54:14;;;;;;;4.53;1.40;;;4.80;99.90;;;;;;4992224;28;20045;-54
2024/02/26 03:56:40;;;;;;;5.13;1.40;;;4.80;99.90;;;;;;4992342;28;20038;-54
2024/02/26 03:59:06;;;;;;;3.73;1.33;;;4.80;99.90;;;;;;4992219;28;20037;-53
2024/02/26 04:01:31;;;;;;;2.87;1.40;;;4.70;99.90;;;;;;4992078;28;20027;-55
2024/02/26 04:03:57;;;;;;;2.57;1.50;;;4.70;99.90;;;;;;4992222;28;20104;-54
2024/02/26 04:06:23;;;;;;;3.87;1.57;;;4.70;99.90;;;;;;4992273;28;20042;-50
2024/02/26 04:08:48;;;;;;;4.50;1.77;;;4.70;99.90;;;;;;4992205;28;20177;-52
2024/02/26 04:11:17;;;;;;;3.57;1.70;;;4.70;99.90;;;;;;4991992;28;20049;-54
2024/02/26 04:13:45;;;;;;;6.18;1.50;;;4.70;99.90;;;;;;4992047;28;20435;-54
2024/02/26 04:16:11;;;;;;;3.40;1.70;;;4.70;99.90;;;;;;4992128;28;20065;-52
2024/02/26 04:18:38;;;;;;;4.03;1.80;;;4.70;99.90;;;;;;4992017;28;20462;-53
2024/02/26 04:21:05;;;;;;;3.97;1.93;;;4.70;99.90;;;;;;4991848;28;20034;-53
2024/02/26 04:23:31;;;;;;;5.43;1.70;;;4.70;99.90;;;;;;4992058;28;20109;-53
2024/02/26 04:25:56;;;;;;;4.33;1.50;;;4.70;99.90;;;;;;4992003;28;20117;-54
2024/02/26 04:28:22;;;;;;;3.03;1.57;;;4.60;99.90;;;;;;4991998;28;20031;-54
2024/02/26 04:30:48;;;;;;;2.57;1.47;;;4.60;99.90;;;;;;4991830;28;20057;-52
2024/02/26 04:33:14;;;;;;;3.03;1.60;;;4.60;99.90;;;;;;4991952;28;20041;-51
2024/02/26 04:35:39;;;;;;;3.70;1.77;;;4.60;99.90;;;;;;4991819;28;20523;-54
2024/02/26 04:38:05;;;;;;;3.40;1.43;;;4.60;99.90;;;;;;4991983;28;20084;-50
2024/02/26 04:40:31;;;;;;;3.90;1.33;;;4.60;99.90;;;;;;4991957;28;20037;-54
2024/02/26 04:42:57;;;;;;;4.13;2.07;;;4.60;99.90;;;;;;4991901;28;20038;-51
2024/02/26 04:45:22;;;;;;;3.67;2.10;;;4.60;99.90;;;;;;4991761;28;20093;-53
2024/02/26 04:47:48;;;;;;;3.07;1.47;;;4.60;99.90;;;;;;4992015;28;20038;-49
2024/02/26 04:50:14;;;;;;;3.40;1.83;;;4.60;99.90;;;;;;4991606;28;20121;-49
2024/02/26 04:52:39;;;;;;;6.03;1.93;;;4.60;99.90;;;;;;4991786;28;20112;-54
2024/02/26 04:55:05;;;;;;;6.37;1.73;;;4.60;99.90;;;;;;4991698;28;20030;-52
2024/02/26 04:57:31;;;;;;;2.73;1.70;;;4.60;99.90;;;;;;4992097;28;20030;-54
2024/02/26 04:59:56;;;;;;;4.33;2.00;;;4.60;99.90;;;;;;4991476;28;20065;-54
2024/02/26 05:02:22;;;;;;;4.73;1.80;;;4.50;99.90;;;;;;4994026;28;20038;-54
2024/02/26 05:04:47;;;;;;;5.37;2.00;;;4.60;99.90;;;;;;4994975;28;20026;-50
2024/02/26 05:07:13;;;;;;;3.83;2.03;;;4.60;99.90;;;;;;4995168;28;20487;-54
2024/02/26 05:09:40;;;;;;;4.77;1.90;;;4.60;99.90;;;;;;4995044;28;20038;-54
2024/02/26 05:12:06;;;;;;;3.97;1.90;;;4.50;99.90;;;;;;4994800;28;20037;-54
2024/02/26 05:14:31;;;;;;;5.17;2.40;;;4.40;99.90;;;;;;4995055;28;20399;-53
2024/02/26 05:16:57;;;;;;;6.87;2.30;;;4.40;99.90;;;;;;4995016;28;20076;-51
2024/02/26 05:19:22;;;;;;;4.00;2.03;;;4.40;99.90;;;;;;4994790;28;20030;-53
2024/02/26 05:21:50;;;;;;;3.17;1.80;;;4.40;99.90;;;;;;4994904;28;20050;-54
2024/02/26 05:24:17;;;;;;;4.97;2.10;;;4.50;99.90;;;;;;4994790;28;20480;-54
2024/02/26 05:26:43;;;;;;;5.10;2.13;;;4.40;99.90;;;;;;4994907;28;20035;-54
2024/02/26 05:29:09;;;;;;;4.03;1.97;;;4.40;99.90;;;;;;4993574;28;20491;-50
2024/02/26 05:31:35;;;;;;;4.03;1.83;;;4.40;99.90;;;;;;4994604;28;20041;-52
2024/02/26 05:34:01;;;;;;;4.73;2.10;;;4.40;99.90;;;;;;4994517;28;20038;-50
2024/02/26 05:36:28;;;;;;;4.80;2.10;;;4.30;99.90;;;;;;4994616;28;20023;-53
2024/02/26 05:38:54;;;;;;;4.30;1.93;;;4.30;99.90;;;;;;4994606;28;20034;-50
2024/02/26 05:41:23;;;;;;;9.03;2.60;;;4.30;99.90;;;;;;4994338;28;20080;-50
2024/02/26 05:43:54;;;;;;;3.83;2.03;;;4.30;99.90;;;;;;4994535;28;20034;-50
2024/02/26 05:46:21;;;;;;;4.83;2.50;;;4.30;99.90;;;;;;4994382;28;20471;-50
2024/02/26 05:48:49;;;;;;;6.50;2.47;;;4.30;99.90;;;;;;4994396;28;20144;-52
2024/02/26 05:51:14;;;;;;;4.53;2.50;;;4.30;99.90;;;;;;4994352;28;20031;-53
2024/02/26 05:53:41;;;;;;;3.97;1.80;;;4.30;99.90;;;;;;4994290;28;20031;-55
2024/02/26 05:56:06;;;;;;;4.63;2.43;;;4.30;99.90;;;;;;4994243;28;20030;-51
2024/02/26 05:58:32;;;;;;;3.60;2.20;;;4.30;99.90;;;;;;4994312;28;20022;-54
2024/02/26 06:00:58;;;;;;;6.53;2.20;;;4.30;99.90;;;;;;4994006;28;20554;-54
2024/02/26 06:03:24;;;;;;;6.23;2.47;;;4.30;99.90;;;;;;4992875;28;20034;-52
2024/02/26 06:05:49;;;;;;;3.47;2.23;;;4.30;99.90;;;;;;4993035;28;20042;-51
2024/02/26 06:08:15;;;;;;;4.20;2.10;;;4.30;99.90;;;;;;4994005;28;20034;-52
2024/02/26 06:10:40;;;;;;;5.17;2.47;;;4.30;99.90;;;;;;4994041;28;20089;-54
2024/02/26 06:13:06;;;;;;;4.23;2.23;;;4.30;99.90;;;;;;4993363;28;20064;-54
2024/02/26 06:15:32;;;;;;;7.00;2.17;;;4.30;99.90;;;;;;4993770;28;20056;-49
2024/02/26 06:17:57;;;;;;;6.13;2.33;;;4.30;99.90;;;;;;4993975;28;20030;-53
2024/02/26 06:20:23;;;;;;;3.67;2.10;;;4.30;99.90;;;;;;4993974;28;20030;-53
2024/02/26 06:22:49;;;;;;;4.93;2.70;;;4.30;99.90;;;;;;4993815;28;20038;-53
2024/02/26 06:25:14;;;;;;;6.00;2.20;;;4.30;99.90;;;;;;4993655;28;20037;-53
2024/02/26 06:27:40;;;;;;;5.13;2.10;;;4.30;99.90;;;;;;4992362;28;20569;-53
2024/02/26 06:30:06;;;;;;;5.17;2.10;;;4.30;99.90;;;;;;4993269;28;20069;-54
2024/02/26 06:32:32;;;;;;;3.13;1.90;;;4.30;99.90;;;;;;4993507;28;20056;-53
2024/02/26 06:34:57;;;;;;;3.83;2.00;;;4.30;99.90;;;;;;4993446;28;20483;-54
2024/02/26 06:37:23;;;;;;;5.53;2.47;;;4.30;99.90;;;;;;4993838;28;20061;-53
2024/02/26 06:39:48;;;;;;;3.30;2.20;;;4.30;99.90;;;;;;4993150;28;20037;-54
2024/02/26 06:42:14;;;;;;;3.80;2.17;;;4.30;99.90;;;;;;4993580;28;20018;-54
2024/02/26 06:44:40;;;;;;;4.80;1.83;;;4.30;99.90;;;;;;4993412;28;20101;-50
2024/02/26 06:47:05;;;;;;;5.23;2.33;;;4.30;99.90;;;;;;4993389;28;20085;-54
2024/02/26 06:49:31;;;;;;;4.20;2.10;;;4.30;99.90;;;;;;4993460;28;20062;-55
2024/02/26 06:51:57;;;;;;;4.07;2.20;;;4.30;99.90;;;;;;4993244;28;20123;-54
2024/02/26 06:54:22;;;;;;;5.57;2.50;;;4.30;99.90;;;;;;4993163;28;20027;-54
2024/02/26 06:56:48;;;;;;;6.33;2.67;;;4.30;99.90;;;;;;4993287;28;20068;-55
2024/02/26 06:59:14;;;;;;;4.63;2.40;;;4.30;99.90;;;;;;4993048;28;20121;-55
2024/02/26 07:01:42;;;;;;;4.27;2.07;;;4.40;99.90;;;;;;4993187;28;20034;-54
2024/02/26 07:04:08;;;;;;;4.30;2.30;;;4.40;99.90;;;;;;4992998;28;20034;-55
2024/02/26 07:06:34;;;;;;;3.83;2.20;;;4.40;99.90;;;;;;4993270;28;20487;-54
2024/02/26 07:09:00;;;;;;;7.60;2.13;;;4.40;99.90;;;;;;4993174;28;20501;-53
2024/02/26 07:11:25;;;;;;;5.20;2.20;;;4.40;99.90;;;;;;4992752;28;20030;-52
2024/02/26 07:13:51;;;;;;;5.53;2.60;;;4.40;99.90;;;;;;4993176;28;20041;-54
2024/02/26 07:16:16;;;;;;;5.50;2.30;;;4.40;99.90;;;;;;4992748;28;20553;-54
2024/02/26 07:18:45;;;;;;;4.50;2.43;;;4.40;99.90;;;;;;4992776;28;20050;-54
2024/02/26 07:21:12;;;;;;;3.70;2.10;;;4.50;99.90;;;;;;4992588;28;20034;-55
2024/02/26 07:23:37;;;;;;;4.87;2.17;;;4.50;99.90;;;;;;4992722;28;20081;-55
2024/02/26 07:26:03;;;;;;;4.13;2.20;;;4.50;99.90;;;;;;4991808;28;20034;-55
2024/02/26 07:28:29;;;;;;;6.13;2.23;;;4.50;99.90;;;;;;4992666;28;20387;-50
2024/02/26 07:30:55;;;;;;;3.53;1.90;;;4.50;99.90;;;;;;4992556;28;20030;-53
2024/02/26 07:33:20;;;;;;;6.30;2.23;;;4.50;99.90;;;;;;4992591;28;20434;-55
2024/02/26 07:35:46;;;;;;;5.80;2.13;;;4.50;99.90;;;;;;4992735;28;20117;-55
2024/02/26 07:38:13;;;;;;;3.90;2.10;;;4.50;99.90;;;;;;4992487;28;20030;-53
2024/02/26 07:40:38;;;;;;;5.70;2.20;;;4.60;99.90;;;;;;4992272;28;20107;-55
2024/02/26 07:43:04;;;;;;;4.80;1.87;;;4.60;99.90;;;;;;4992323;28;20034;-55
2024/02/26 07:45:30;;;;;;;4.67;2.30;;;4.60;99.90;;;;;;4992339;28;20065;-50
2024/02/26 07:47:55;;;;;;;3.40;2.13;;;4.60;99.90;;;;;;4992406;28;20121;-54
2024/02/26 07:50:21;;;;;;;5.07;2.20;;;4.60;99.90;;;;;;4992164;28;20034;-50
2024/02/26 07:52:46;;;;;;;4.63;2.17;;;4.60;99.90;;;;;;4992264;28;20035;-53
2024/02/26 07:55:12;;;;;;;5.30;2.00;;;4.60;99.90;;;;;;4992201;28;20035;-54
2024/02/26 07:57:42;;;;;;;2.73;1.70;;;4.60;99.90;;;;;;4992219;28;20034;-53
2024/02/26 08:00:09;;;;;;;3.70;1.80;;;4.60;99.90;;;;;;4992012;28;20113;-52
2024/02/26 08:02:35;;;;;;;5.33;2.00;;;4.60;99.90;;;;;;4992266;28;20115;-51
2024/02/26 08:05:01;;;;;;;3.40;2.00;;;4.60;99.90;;;;;;4992323;28;20395;-53
2024/02/26 08:07:26;;;;;;;5.00;2.23;;;4.60;99.90;;;;;;4992188;28;20049;-50
2024/02/26 08:09:52;;;;;;;4.53;2.00;;;4.60;99.90;;;;;;4992017;28;20274;-52
2024/02/26 08:12:17;;;;;;;4.80;1.90;;;4.60;99.90;;;;;;4991982;28;20054;-53
2024/02/26 08:14:43;;;;;;;5.10;2.23;;;4.60;99.90;;;;;;4992095;28;20027;-54
2024/02/26 08:17:09;;;;;;;4.23;2.17;;;4.60;99.90;;;;;;4992114;28;20077;-51
2024/02/26 08:19:35;;;;;;;3.77;2.10;;;4.60;99.90;;;;;;4990805;28;20031;-55
2024/02/26 08:22:01;;;;;;;4.57;1.90;;;4.60;99.90;;;;;;4991908;28;20030;-55
2024/02/26 08:24:27;;;;;;;5.77;2.20;;;4.60;99.90;;;;;;4991913;28;20030;-55
2024/02/26 08:26:53;;;;;;;4.03;1.90;;;4.60;99.90;;;;;;4992082;28;20080;-51
2024/02/26 08:29:19;;;;;;;4.53;2.00;;;4.70;99.90;;;;;;4991907;28;20060;-52
2024/02/26 08:31:44;;;;;;;4.43;2.00;;;4.70;99.90;;;;;;4992001;28;20619;-54
2024/02/26 08:34:10;;;;;;;4.83;2.20;;;4.70;99.90;;;;;;4992235;28;20034;-55
2024/02/26 08:36:36;;;;;;;4.97;2.20;;;4.70;99.90;;;;;;4993297;28;20038;-52
2024/02/26 08:39:02;;;;;;;6.33;2.50;;;4.70;99.90;;;;;;4995580;28;20038;-50
2024/02/26 08:41:28;;;;;;;7.33;2.23;;;4.70;99.90;;;;;;4995347;28;20062;-54
2024/02/26 08:43:54;;;;;;;5.47;2.57;;;4.70;99.90;;;;;;4995501;28;20495;-54
2024/02/26 08:46:20;;;;;;;5.67;2.20;;;4.70;99.90;;;;;;4995497;28;20131;-53
2024/02/26 08:48:45;;;;;;;7.70;2.90;;;4.80;99.90;;;;;;4995473;28;20086;-54
2024/02/26 08:51:11;;;;;;;5.17;2.47;;;4.80;99.90;;;;;;4995571;28;20039;-54
2024/02/26 08:53:37;;;;;;;5.97;3.10;;;4.90;99.90;;;;;;4995330;28;20141;-54
2024/02/26 08:56:03;;;;;;;5.10;2.40;;;4.80;99.90;;;;;;4995290;28;20475;-54
2024/02/26 08:58:29;;;;;;;4.47;2.63;;;4.80;99.90;;;;;;4995334;28;20033;-54
2024/02/26 09:00:55;;;;;;;6.00;2.80;;;4.90;99.90;;;;;;4995079;28;20022;-53
2024/02/26 09:03:20;;;;;;;4.80;2.37;;;4.90;99.90;;;;;;4995174;28;20042;-52
2024/02/26 09:05:46;;;;;;;3.67;2.23;;;4.90;99.90;;;;;;4995114;28;20046;-54
2024/02/26 09:08:12;;;;;;;4.40;2.40;;;4.90;99.90;;;;;;4995083;28;20026;-53
2024/02/26 09:10:38;;;;;;;5.23;2.60;;;4.90;99.90;;;;;;4994787;28;20096;-54
2024/02/26 09:13:04;;;;;;;6.33;2.93;;;4.90;99.90;;;;;;4994988;28;20129;-52
2024/02/26 09:15:30;;;;;;;8.40;2.87;;;5.00;99.90;;;;;;4994984;28;20109;-50
2024/02/26 09:17:55;;;;;;;7.50;3.20;;;5.00;99.90;;;;;;4995172;28;20034;-51
2024/02/26 09:20:23;;;;;;;6.13;2.73;;;5.00;99.90;;;;;;4994674;28;20026;-54
2024/02/26 09:22:49;;;;;;;7.10;2.93;;;5.00;99.90;;;;;;4994831;28;20038;-54
2024/02/26 09:25:17;;;;;;;4.00;2.37;;;5.00;99.90;;;;;;4994800;28;20039;-53
2024/02/26 09:27:44;;;;;;;5.83;2.80;;;5.00;99.90;;;;;;4994757;28;20415;-50
2024/02/26 09:30:11;;;;;;;10.17;2.83;;;5.00;99.90;;;;;;4994586;28;20621;-53
2024/02/26 09:32:37;;;;;;;5.87;2.83;;;4.90;99.90;;;;;;4994650;28;20376;-52
2024/02/26 09:35:03;;;;;;;5.57;2.47;;;5.00;99.90;;;;;;4994561;28;20034;-55
2024/02/26 09:37:29;;;;;;;5.53;2.83;;;4.90;99.90;;;;;;4994576;28;20039;-54
2024/02/26 09:39:54;;;;;;;6.17;2.73;;;4.90;99.90;;;;;;4994243;28;20040;-54
2024/02/26 09:42:21;;;;;;;5.10;2.53;;;5.00;99.90;;;;;;4994556;28;20034;-51
2024/02/26 09:44:51;;;;;;;6.87;2.83;;;5.00;99.90;;;;;;4994229;28;20575;-53
2024/02/26 09:47:17;;;;;;;6.17;2.90;;;4.90;99.90;;;;;;4994109;28;20069;-52
2024/02/26 09:49:43;;;;;;;5.00;2.80;;;5.00;99.90;;;;;;4993655;28;20097;-51
2024/02/26 09:52:09;;;;;;;4.23;2.57;;;5.00;99.90;;;;;;4992683;28;20031;-54
2024/02/26 09:54:35;;;;;;;7.63;3.17;;;4.90;99.90;;;;;;4994239;28;20073;-54
2024/02/26 09:57:04;;;;;;;5.93;2.63;;;4.90;99.90;;;;;;4994278;28;20030;-53
2024/02/26 09:59:35;;;;;;;8.37;3.40;;;4.90;99.90;;;;;;4994119;28;20030;-54
2024/02/26 10:02:02;;;;;;;7.67;3.33;;;4.90;99.90;;;;;;4994099;28;20038;-54
2024/02/26 10:04:29;;;;;;;6.30;2.87;;;4.90;99.90;;;;;;4994065;28;20043;-54
2024/02/26 10:06:55;;;;;;;6.70;3.13;;;4.90;99.90;;;;;;4992643;28;20436;-52
2024/02/26 10:09:21;;;;;;;6.40;3.30;;;4.90;99.90;;;;;;4994111;28;20126;-50
2024/02/26 10:11:48;;;;;;;7.20;2.83;;;5.00;99.90;;;;;;4993925;28;20038;-50
2024/02/26 10:14:15;;;;;;;8.40;3.53;;;4.90;99.90;;;;;;4993778;28;20558;-52
2024/02/26 10:16:41;;;;;;;8.70;3.67;;;5.00;99.90;;;;;;4993898;28;20400;-53
2024/02/26 10:19:07;;;;;;;6.87;3.43;;;4.90;99.90;;;;;;4993805;28;20034;-55
2024/02/26 10:21:32;;;;;;;6.03;3.40;;;5.00;99.90;;;;;;4993439;28;20030;-52
2024/02/26 10:23:58;;;;;;;4.80;2.93;;;5.00;99.90;;;;;;4993650;28;20034;-54
2024/02/26 10:26:23;;;;;;;6.13;2.93;;;5.00;99.90;;;;;;4993606;28;20432;-54
2024/02/26 10:28:49;;;;;;;6.87;3.20;;;5.00;99.90;;;;;;4993579;28;20022;-54
2024/02/26 10:31:15;;;;;;;5.43;3.20;;;5.10;99.90;;;;;;4993484;28;20040;-52
2024/02/26 10:33:42;;;;;;;5.87;3.17;;;5.10;99.90;;;;;;4993385;28;20038;-54
2024/02/26 10:36:08;;;;;;;8.83;3.47;;;5.10;99.90;;;;;;4991994;28;20030;-51
2024/02/26 10:38:36;;;;;;;8.00;3.60;;;5.20;99.90;;;;;;4993455;28;20029;-51
2024/02/26 10:41:03;;;;;;;6.53;3.43;;;5.20;99.90;;;;;;4993465;28;20038;-50
2024/02/26 10:43:29;;;;;;;5.10;2.70;;;5.10;99.90;;;;;;4993336;28;20073;-50
2024/02/26 10:45:57;;;;;;;11.23;3.30;;;5.20;99.90;;;;;;4993384;28;20070;-50
2024/02/26 10:48:23;;;;;;;8.30;3.65;;;5.20;99.90;;;;;;4993449;28;20038;-51
2024/02/26 10:50:50;;;;;;;7.43;3.00;;;5.20;99.90;;;;;;4993211;28;20085;-50
2024/02/26 10:53:22;;;;;;;7.03;3.40;;;5.30;99.90;;;;;;4993224;28;20046;-50
2024/02/26 10:56:01;;;;;;;4.80;2.97;;;5.30;99.90;;;;;;4993342;28;20038;-50
2024/02/26 10:58:28;;;;;;;6.78;3.40;;;5.30;99.90;;;;;;4993445;28;20475;-53
2024/02/26 11:00:56;;;;;;;6.80;3.13;;;5.40;99.90;;;;;;4992710;28;20480;-54
2024/02/26 11:03:22;;;;;;;7.53;3.63;;;5.40;99.90;;;;;;4993164;28;20030;-54
2024/02/26 11:05:49;;;;;;;9.00;3.23;;;5.40;99.90;;;;;;4993133;28;20121;-51
2024/02/26 11:08:18;;;;;;;8.83;3.40;;;5.40;99.90;;;;;;4992024;28;20380;-53
2024/02/26 11:10:46;;;;;;;5.43;3.10;;;5.50;99.90;;;;;;4992877;28;20045;-53
2024/02/26 11:13:14;;;;;;;7.38;3.58;;;5.60;99.90;;;;;;4992902;28;20086;-54
2024/02/26 11:15:40;;;;;;;8.33;3.50;;;5.60;99.90;;;;;;4992946;28;20031;-54
2024/02/26 11:18:08;;;;;;;6.10;3.47;;;5.70;99.90;;;;;;4991425;28;20038;-54
2024/02/26 11:20:38;;;;;;;6.00;3.20;;;5.80;99.90;;;;;;4993009;28;20101;-50
2024/02/26 11:23:09;;;;;;;5.80;3.30;;;5.80;99.90;;;;;;4992966;28;20040;-53
2024/02/26 11:25:41;;;;;;;8.20;3.53;;;5.90;99.90;;;;;;4993272;28;20027;-52
2024/02/26 11:28:12;;;;;;;10.32;3.80;;;5.90;99.90;;;;;;4991962;28;20034;-53
2024/02/26 11:30:45;;;;;;;7.77;3.30;;;5.90;99.90;;;;;;4991313;28;20081;-51
2024/02/26 11:33:26;;;;;;;7.50;3.90;;;5.80;99.90;;;;;;4993218;28;20027;-57
2024/02/26 11:35:55;;;;;;;6.73;3.63;;;5.80;99.90;;;;;;4993296;28;20026;-52
2024/02/26 11:38:27;;;;;;;7.00;3.60;;;5.80;99.90;;;;;;4992173;28;20038;-55
2024/02/26 11:40:59;;;;;;;6.80;3.25;;;5.80;99.90;;;;;;4993530;28;20073;-54
2024/02/26 11:44:02;;;;;;;6.40;3.50;;;5.80;99.90;;;;;;4992291;28;20069;-51
2024/02/26 11:46:41;;;;;;;5.33;2.87;;;5.80;99.90;;;;;;4992491;28;20485;-51
2024/02/26 11:49:28;;;;;;;6.60;3.22;;;5.90;99.90;;;;;;4993466;28;20046;-56
2024/02/26 11:52:00;;;;;;;6.43;3.30;;;6.00;99.90;;;;;;4992146;28;20061;-53
2024/02/26 11:54:49;;;;;;;9.20;3.88;;;6.00;99.90;;;;;;4993520;28;20532;-55
2024/02/26 11:57:37;;;;;;;12.80;4.17;;;6.00;99.90;;;;;;4993629;28;20030;-53
2024/02/26 12:00:06;;;;;;;8.38;4.07;;;6.10;99.90;;;;;;4993761;28;20038;-52
2024/02/26 12:03:02;;;;;;;12.95;4.43;;;6.10;99.90;;;;;;4991391;28;20399;-54
2024/02/26 12:05:32;;;;;;;7.63;3.13;;;6.20;99.90;;;;;;4991766;28;20173;-53
2024/02/26 12:08:03;;;;;;;8.37;3.77;;;6.30;99.90;;;;;;4991962;28;20038;-51
2024/02/26 12:10:48;;;;;;;7.47;3.97;;;6.40;99.90;;;;;;4993072;28;20419;-55
2024/02/26 12:13:19;;;;;;;7.97;4.10;;;6.50;99.90;;;;;;4997136;28;20027;-52
2024/02/26 12:15:57;;;;;;;8.60;4.07;;;6.50;99.90;;;;;;4996877;28;20041;-54
2024/02/26 12:18:23;;;;;;;7.60;4.10;;;6.60;99.90;;;;;;4997120;28;20027;-51
2024/02/26 12:21:02;;;;;;;8.00;3.80;;;6.60;99.90;;;;;;4997007;28;20388;-54
2024/02/26 12:23:28;;;;;;;7.43;3.90;;;6.50;99.90;;;;;;4994600;28;20045;-55
2024/02/26 12:26:04;;;;;;;11.53;4.50;;;6.50;99.90;;;;;;4997162;28;20038;-53
2024/02/26 12:28:33;;;;;;;10.17;4.17;;;6.60;99.90;;;;;;4996622;28;20494;-52
2024/02/26 12:31:08;;;;;;;7.93;3.70;;;6.70;99.90;;;;;;4997288;28;20418;-55
2024/02/26 12:33:34;;;;;;;8.03;3.60;;;6.70;99.90;;;;;;4996921;28;20042;-52
2024/02/26 12:36:03;;;;;;;6.83;3.90;;;6.60;99.90;;;;;;4996426;28;20404;-54
2024/02/26 12:38:30;;;;;;;8.05;3.90;;;6.60;99.90;;;;;;4996801;28;20105;-55
2024/02/26 12:40:58;;;;;;;9.37;3.97;;;6.60;99.90;;;;;;4996721;28;20037;-53
2024/02/26 12:43:25;;;;;;;8.13;3.75;;;6.70;99.90;;;;;;4997153;28;20030;-53
2024/02/26 12:45:56;;;;;;;8.52;3.75;;;6.60;99.90;;;;;;4996748;28;20038;-52
2024/02/26 12:48:22;;;;;;;8.88;4.55;;;6.60;99.90;;;;;;4997046;28;20030;-54
2024/02/26 12:50:51;;;;;;;6.80;3.73;;;6.60;99.90;;;;;;4994731;28;20105;-54
2024/02/26 12:53:22;;;;;;;8.33;4.13;;;6.60;99.90;;;;;;4996302;28;20089;-54
2024/02/26 12:55:55;;;;;;;8.70;3.87;;;6.60;99.90;;;;;;4995227;28;20073;-57